METAR AND TAF INFORMATION
METAR FOR KTEX
ADDS - METARS form results

(2123 UTC 24 January 2021)
Data provider http://aviationweather.gov/metar/data/
 
METAR text: KTEX 242115Z AUTO 00000KT 1/2SM SN OVC009 M03/M05 A2965 RMK AO2
Conditions at: KTEX (TELLURIDE REGION, CO, US) observed 2115 UTC 24 January 2021
Temperature: -3.0°C (27°F)
Dewpoint: -5.0°C (23°F) [RH = 86%]
Pressure (altimeter): 29.65 inches Hg (1004.1 mb)
Winds: calm
Visibility: 0.50 miles (0.80 km)
Ceiling: 900 feet AGL
Clouds: overcast cloud deck at 900 feet AGL
Weather: SN  (moderate snow)

METAR text: KTEX 242055Z AUTO 28009KT 1/2SM -SN BKN009 OVC018 M03/M06 A2966 RMK AO2
Conditions at: KTEX (TELLURIDE REGION, CO, US) observed 2055 UTC 24 January 2021
Temperature: -3.0°C (27°F)
Dewpoint: -6.0°C (21°F) [RH = 80%]
Pressure (altimeter): 29.66 inches Hg (1004.5 mb)
Winds: from the W (280 degrees) at 10 MPH (9 knots; 4.6 m/s)
Visibility: 0.50 miles (0.80 km)
Ceiling: 900 feet AGL
Clouds: broken clouds at 900 feet AGL
overcast cloud deck at 1800 feet AGL
Weather: -SN  (light snow)

METAR text: KTEX 242035Z AUTO 00000KT 1SM -SN OVC020 M02/M05 A2967 RMK AO2
Conditions at: KTEX (TELLURIDE REGION, CO, US) observed 2035 UTC 24 January 2021
Temperature: -2.0°C (28°F)
Dewpoint: -5.0°C (23°F) [RH = 80%]
Pressure (altimeter): 29.67 inches Hg (1004.8 mb)
Winds: calm
Visibility: 1.00 miles (1.61 km)
Ceiling: 2000 feet AGL
Clouds: overcast cloud deck at 2000 feet AGL
Weather: -SN  (light snow)

Forecast for: KTEX (TELLURIDE REGION, CO, US)
Text: KTEX 241739Z 2418/2518 VRB04KT 3SM -SHSN SCT015 BKN025 OVC040
Forecast period: 1800 UTC 24 January 2021 to 0400 UTC 25 January 2021
Forecast type: FROM: standard forecast or significant change
Winds: variable direction winds at 5 MPH (4 knots; 2.1 m/s)
Visibility: 3 miles (5 km)
Ceiling: 2500 feet AGL
Clouds: scattered clouds at 1500 feet AGL
broken clouds at 2500 feet AGL
overcast cloud deck at 4000 feet AGL
Weather: -SHSN  (light snow showers)
Text: TEMPO 2418/2422 1/2SM SHSN FZFG OVC010
Forecast period: 1800 to 2200 UTC 24 January 2021
Forecast type: TEMPORARY: The following changes expected for less than half the time period
Visibility: 0.50 miles (0.80 km)
Ceiling: 1000 feet AGL
Clouds: overcast cloud deck at 1000 feet AGL
Weather: SHSN FZFG  (snow showers, freezing fog)
Text: FM250400 VRB03KT 5SM -SHSN BR SCT022 BKN045
Forecast period: 0400 to 1200 UTC 25 January 2021
Forecast type: FROM: standard forecast or significant change
Winds: variable direction winds at 3 MPH (3 knots; 1.5 m/s)
Visibility: 5 miles (8 km)
Ceiling: 4500 feet AGL
Clouds: scattered clouds at 2200 feet AGL
broken clouds at 4500 feet AGL
Weather: -SHSN BR  (light snow showers, mist)
Text: FM251200 VRB04KT P6SM SCT010 BKN021
Forecast period: 1200 to 1500 UTC 25 January 2021
Forecast type: FROM: standard forecast or significant change
Winds: variable direction winds at 5 MPH (4 knots; 2.1 m/s)
Visibility: 6 or more miles (10+ km)
Ceiling: 2100 feet AGL
Clouds: scattered clouds at 1000 feet AGL
broken clouds at 2100 feet AGL
Weather: no significant weather forecast for this period
Text: FM251500 VRB03KT P6SM SCT025 BKN045
Forecast period: 1500 to 1800 UTC 25 January 2021
Forecast type: FROM: standard forecast or significant change
Winds: variable direction winds at 3 MPH (3 knots; 1.5 m/s)
Visibility: 6 or more miles (10+ km)
Ceiling: 4500 feet AGL
Clouds: scattered clouds at 2500 feet AGL
broken clouds at 4500 feet AGL
Weather: no significant weather forecast for this period

 AIRPORT MAP

 RUNWAY INFORMATION
Runway 09 Runway length 6870 ft Runway width 100 ft
Runway elevation 9061 ft Runway displaced threshold 0 ft Runway heading 105
Runway 27 Runway length 6870 ft Runway width 100 ft
Runway elevation 9078 ft Runway displaced threshold 0 ft Runway heading 285

 AIRPORT FREQUENCIES
Type CNTR Name DENVER CNT Frequency 125.35 MHZ
Type FSS Name DENVER RDO Frequency 122.15 MHZ
Type UNIC Name CTAF/UNICO Frequency 123 MHZ

 AIRPORT NEAR NAVIGATION AIDS



Powered by Virtual Airlines Manager [v2.6.2]